This is the latest recevied weather packets stored in our database for station/object KI4FRU. If no packets are shown the sender has not sent any weather packets the latest 10 day(s).
| Time | Temp. | Humidity | Pressure | Rain* | Wind** | Luminosity | Snow |
|---|---|---|---|---|---|---|---|
| 1777503535 | 23.89° C | 91% | 1046.9 hPa | 0 mm | - | 32 W/m² | - |
| 1777503231 | 23.89° C | 90% | 1046.6 hPa | 0 mm | - | 31 W/m² | - |
| 1777502928 | 24.44° C | 91% | 1046.8 hPa | 0 mm | - | 27 W/m² | - |
| 1777502626 | 24.44° C | 92% | 1046.8 hPa | 0 mm | - | 33 W/m² | - |
| 1777502323 | 24.44° C | 91% | 1046.7 hPa | 0 mm | - | 41 W/m² | - |
| 1777502019 | 24.44° C | 87% | 1046.6 hPa | 0 mm | - | 30 W/m² | - |
| 1777501716 | 24.44° C | 88% | 1046.8 hPa | 0 mm | - | 38 W/m² | - |
| 1777501413 | 24.44° C | 90% | 1046.7 hPa | 0 mm | - | 41 W/m² | - |
| 1777501111 | 24.44° C | 89% | 1046.8 hPa | 0 mm | - | 61 W/m² | - |
| 1777500809 | 25° C | 87% | 1046.6 hPa | 0 mm | - | 49 W/m² | - |
| 1777500506 | 26.67° C | 80% | 1046.6 hPa | 0 mm | - | 50 W/m² | - |
| 1777500202 | 26.11° C | 86% | 1047 hPa | 0 mm | - | 145 W/m² | - |
| 1777499899 | 26.11° C | 86% | 1047 hPa | 0 mm | - | 145 W/m² | - |
| 1777499595 | 23.89° C | 94% | 1047.4 hPa | 0 mm | - | 265 W/m² | - |
| 1777499292 | 22.78° C | 99% | 1047.5 hPa | 0 mm | - | 246 W/m² | - |
| 1777498989 | 22.78° C | 99% | 1047 hPa | 0 mm | - | 45 W/m² | - |
| 1777498685 | 22.78° C | 97% | 1046.9 hPa | 0 mm | - | 73 W/m² | - |
| 1777498376 | 23.33° C | 95% | 1046.6 hPa | 0 mm | - | 98 W/m² | - |
| 1777498074 | 23.33° C | 93% | 1046.7 hPa | 1.27 mm | - | 93 W/m² | - |
| 1777497770 | 24.44° C | 90% | 1046.7 hPa | 1.27 mm | - | 68 W/m² | - |
| 1777497467 | 25° C | 86% | 1047.5 hPa | 0 mm | - | 59 W/m² | - |
| 1777497163 | 25.56° C | 78% | 1047 hPa | 0 mm | - | 49 W/m² | - |
| 1777496860 | 26.11° C | 77% | 1047.3 hPa | 0 mm | - | 39 W/m² | - |
| 1777496557 | 27.22° C | 73% | 1047.3 hPa | 0 mm | - | 38 W/m² | - |
| 1777496253 | 27.78° C | 71% | 1047.3 hPa | 0 mm | - | 65 W/m² | - |
* Rain latest hour (hover to see other rain measurements)
** Current wind speed in m/s (hover to see current wind gust speed)